SWA1982 KOAK-KLAX
Flight info
| Callsign | SWA1982 |
|---|---|
| Flight time | 1h 1m |
| Altitude | 35000 |
| Route | CNDEL5 SUSEY EBAYE BURGL IRNMN2 |
| Aircraft | B738/M-SDE2E3FGHIRWXY/LB1 |
Departure
| Time | 2026-05-05 00:00 |
|---|---|
| Airport | San Francisco Bay Oakland International Airport (KOAK) |
Arrival
| Time | 2026-05-05 01:02 |
|---|---|
| Airport | Los Angeles International Airport (KLAX) |
| Time | Latitude | Longitude | Altitude | Speed | Heading |
|---|---|---|---|---|---|
| 2026-05-04 23:46 | 37.70990 | -122.21257 | 13 ft | 0 kts | 130° |
| 2026-05-04 23:54 | 37.70999 | -122.21272 | 12 ft | 3 kts | 130° |
| 2026-05-04 23:54 | 37.71014 | -122.21293 | 12 ft | 3 kts | 130° |
| 2026-05-04 23:54 | 37.71030 | -122.21316 | 13 ft | 3 kts | 130° |
| 2026-05-04 23:55 | 37.71045 | -122.21340 | 13 ft | 3 kts | 130° |
| 2026-05-04 23:55 | 37.71061 | -122.21363 | 13 ft | 2 kts | 130° |
| 2026-05-04 23:56 | 37.71060 | -122.21362 | 13 ft | 1 kts | 130° |
| 2026-05-04 23:57 | 37.71021 | -122.21370 | 13 ft | 9 kts | 224° |
| 2026-05-04 23:57 | 37.70953 | -122.21436 | 11 ft | 13 kts | 217° |
| 2026-05-04 23:57 | 37.70882 | -122.21505 | 11 ft | 13 kts | 224° |
| 2026-05-04 23:57 | 37.70855 | -122.21607 | 11 ft | 13 kts | 233° |
| 2026-05-04 23:58 | 37.70787 | -122.21685 | 12 ft | 14 kts | 220° |
| 2026-05-04 23:58 | 37.70692 | -122.21780 | 11 ft | 20 kts | 202° |
| 2026-05-04 23:58 | 37.70583 | -122.21700 | 11 ft | 19 kts | 128° |
| 2026-05-04 23:58 | 37.70498 | -122.21572 | 11 ft | 19 kts | 131° |
| 2026-05-04 23:59 | 37.70415 | -122.21449 | 10 ft | 18 kts | 130° |
| 2026-05-04 23:59 | 37.70310 | -122.21377 | 11 ft | 17 kts | 163° |
| 2026-05-04 23:59 | 37.70202 | -122.21392 | 11 ft | 17 kts | 224° |
| 2026-05-04 23:59 | 37.70193 | -122.21493 | 12 ft | 0 kts | 311° |
| 2026-05-05 00:00 | 37.70223 | -122.21536 | 10 ft | 35 kts | 310° |
| 2026-05-05 00:00 | 37.70300 | -122.21654 | 9 ft | 68 kts | 309° |
| 2026-05-05 00:00 | 37.71306 | -122.23140 | 224 ft | 182 kts | 307° |
| 2026-05-05 00:00 | 37.72146 | -122.24359 | 1339 ft | 191 kts | 309° |
| 2026-05-05 00:01 | 37.72997 | -122.25658 | 1978 ft | 199 kts | 304° |
| 2026-05-05 00:01 | 37.73916 | -122.27131 | 2037 ft | 228 kts | 307° |
| 2026-05-05 00:01 | 37.74947 | -122.28653 | 1987 ft | 229 kts | 309° |
| 2026-05-05 00:01 | 37.75983 | -122.30190 | 1985 ft | 234 kts | 308° |
| 2026-05-05 00:02 | 37.77101 | -122.31843 | 2445 ft | 255 kts | 309° |
| 2026-05-05 00:02 | 37.78236 | -122.33535 | 3717 ft | 253 kts | 308° |
| 2026-05-05 00:02 | 37.79142 | -122.35480 | 4614 ft | 263 kts | 282° |
| 2026-05-05 00:02 | 37.79107 | -122.37793 | 5448 ft | 268 kts | 251° |
| 2026-05-05 00:03 | 37.78182 | -122.39792 | 6333 ft | 271 kts | 224° |
| 2026-05-05 00:03 | 37.76585 | -122.41051 | 7156 ft | 273 kts | 196° |
| 2026-05-05 00:03 | 37.74705 | -122.41257 | 7992 ft | 277 kts | 169° |
| 2026-05-05 00:03 | 37.72916 | -122.40349 | 8820 ft | 281 kts | 145° |
| 2026-05-05 00:04 | 37.71355 | -122.38852 | 9675 ft | 286 kts | 139° |
| 2026-05-05 00:04 | 37.69812 | -122.37219 | 10413 ft | 295 kts | 138° |
| 2026-05-05 00:04 | 37.68181 | -122.35455 | 10650 ft | 322 kts | 137° |
| 2026-05-05 00:04 | 37.66416 | -122.33535 | 10862 ft | 348 kts | 138° |
| 2026-05-05 00:05 | 37.64532 | -122.31508 | 11342 ft | 361 kts | 139° |
| 2026-05-05 00:05 | 37.62596 | -122.29446 | 12119 ft | 365 kts | 139° |
| 2026-05-05 00:05 | 37.60642 | -122.27375 | 12922 ft | 370 kts | 137° |
| 2026-05-05 00:05 | 37.58656 | -122.25277 | 13706 ft | 375 kts | 138° |
| 2026-05-05 00:06 | 37.56644 | -122.23158 | 14454 ft | 378 kts | 138° |
| 2026-05-05 00:06 | 37.54623 | -122.21031 | 15291 ft | 379 kts | 138° |
| 2026-05-05 00:06 | 37.52601 | -122.18907 | 16104 ft | 380 kts | 138° |
| 2026-05-05 00:06 | 37.50554 | -122.16760 | 16837 ft | 384 kts | 138° |
| 2026-05-05 00:07 | 37.48494 | -122.14601 | 17593 ft | 387 kts | 138° |
| 2026-05-05 00:07 | 37.46414 | -122.12422 | 18331 ft | 391 kts | 137° |
| 2026-05-05 00:07 | 37.44314 | -122.10224 | 18928 ft | 395 kts | 137° |
| 2026-05-05 00:07 | 37.42232 | -122.08046 | 19505 ft | 399 kts | 137° |
| 2026-05-05 00:08 | 37.40113 | -122.05830 | 20148 ft | 400 kts | 136° |
| 2026-05-05 00:08 | 37.37946 | -122.03567 | 20768 ft | 403 kts | 136° |
| 2026-05-05 00:08 | 37.35779 | -122.01305 | 21301 ft | 407 kts | 136° |
| 2026-05-05 00:08 | 37.33609 | -121.99041 | 21847 ft | 412 kts | 136° |
| 2026-05-05 00:09 | 37.31397 | -121.96735 | 22423 ft | 415 kts | 136° |
| 2026-05-05 00:09 | 37.29163 | -121.94410 | 22996 ft | 418 kts | 136° |
| 2026-05-05 00:09 | 37.26888 | -121.92045 | 23527 ft | 421 kts | 135° |
| 2026-05-05 00:09 | 37.24650 | -121.89719 | 23975 ft | 424 kts | 135° |
| 2026-05-05 00:10 | 37.22337 | -121.87318 | 24436 ft | 427 kts | 135° |
| 2026-05-05 00:10 | 37.20046 | -121.84941 | 24899 ft | 429 kts | 135° |
| 2026-05-05 00:10 | 37.17769 | -121.82580 | 25327 ft | 432 kts | 136° |
| 2026-05-05 00:10 | 37.15440 | -121.80167 | 25700 ft | 436 kts | 136° |
| 2026-05-05 00:11 | 37.13100 | -121.77744 | 26164 ft | 437 kts | 136° |
| 2026-05-05 00:11 | 37.10714 | -121.75277 | 26614 ft | 439 kts | 136° |
| 2026-05-05 00:11 | 37.08391 | -121.72878 | 27012 ft | 441 kts | 136° |
| 2026-05-05 00:11 | 37.06014 | -121.70425 | 27367 ft | 444 kts | 136° |
| 2026-05-05 00:12 | 37.03620 | -121.67956 | 27704 ft | 447 kts | 136° |
| 2026-05-05 00:12 | 37.01203 | -121.65463 | 27962 ft | 453 kts | 137° |
| 2026-05-05 00:12 | 36.98761 | -121.62947 | 28259 ft | 456 kts | 137° |
| 2026-05-05 00:12 | 36.96305 | -121.60421 | 28637 ft | 458 kts | 137° |
| 2026-05-05 00:13 | 36.93841 | -121.57888 | 29004 ft | 460 kts | 137° |
| 2026-05-05 00:13 | 36.91364 | -121.55345 | 29331 ft | 462 kts | 137° |
| 2026-05-05 00:13 | 36.88881 | -121.52798 | 29723 ft | 463 kts | 137° |
| 2026-05-05 00:13 | 36.86398 | -121.50252 | 30225 ft | 461 kts | 138° |
| 2026-05-05 00:14 | 36.83915 | -121.47708 | 30520 ft | 463 kts | 140° |
| 2026-05-05 00:14 | 36.81426 | -121.45162 | 30760 ft | 465 kts | 139° |
| 2026-05-05 00:14 | 36.78921 | -121.42603 | 31085 ft | 466 kts | 140° |
| 2026-05-05 00:14 | 36.76416 | -121.40044 | 31449 ft | 465 kts | 140° |
| 2026-05-05 00:15 | 36.73910 | -121.37485 | 31800 ft | 465 kts | 140° |
| 2026-05-05 00:15 | 36.71411 | -121.34935 | 32120 ft | 466 kts | 141° |
| 2026-05-05 00:15 | 36.68896 | -121.32370 | 32384 ft | 468 kts | 142° |
| 2026-05-05 00:15 | 36.66371 | -121.29797 | 32661 ft | 469 kts | 141° |
| 2026-05-05 00:16 | 36.63851 | -121.27230 | 33058 ft | 467 kts | 141° |
| 2026-05-05 00:16 | 36.61338 | -121.24677 | 33429 ft | 466 kts | 143° |
| 2026-05-05 00:16 | 36.58818 | -121.22121 | 33752 ft | 467 kts | 142° |
| 2026-05-05 00:16 | 36.57202 | -121.20481 | 33969 ft | 466 kts | 143° |
| 2026-05-05 00:17 | 36.54692 | -121.17929 | 34239 ft | 466 kts | 143° |
| 2026-05-05 00:17 | 36.52190 | -121.15367 | 34505 ft | 466 kts | 143° |
| 2026-05-05 00:17 | 36.49669 | -121.12822 | 34795 ft | 465 kts | 144° |
| 2026-05-05 00:17 | 36.47163 | -121.10302 | 35042 ft | 466 kts | 144° |
| 2026-05-05 00:18 | 36.44635 | -121.07755 | 35025 ft | 470 kts | 144° |
| 2026-05-05 00:18 | 36.40000 | -121.02014 | 35039 ft | 472 kts | 134° |
| 2026-05-05 00:19 | 36.35799 | -120.95824 | 35029 ft | 468 kts | 133° |
| 2026-05-05 00:19 | 36.31607 | -120.89669 | 35038 ft | 467 kts | 134° |
| 2026-05-05 00:20 | 36.27378 | -120.83570 | 35014 ft | 467 kts | 134° |
| 2026-05-05 00:20 | 36.23127 | -120.77488 | 35030 ft | 467 kts | 135° |
| 2026-05-05 00:21 | 36.18876 | -120.71425 | 35026 ft | 467 kts | 135° |
| 2026-05-05 00:21 | 36.14616 | -120.65355 | 35030 ft | 468 kts | 135° |
| 2026-05-05 00:22 | 36.10350 | -120.59284 | 35031 ft | 467 kts | 135° |
| 2026-05-05 00:22 | 36.06079 | -120.53216 | 35020 ft | 468 kts | 136° |
| 2026-05-05 00:23 | 36.01847 | -120.47214 | 35036 ft | 468 kts | 136° |
| 2026-05-05 00:23 | 35.97544 | -120.41124 | 35045 ft | 468 kts | 136° |
| 2026-05-05 00:24 | 35.93270 | -120.35083 | 35027 ft | 470 kts | 137° |
| 2026-05-05 00:24 | 35.88984 | -120.29038 | 35027 ft | 471 kts | 138° |
| 2026-05-05 00:25 | 35.84146 | -120.23839 | 35023 ft | 455 kts | 155° |
| 2026-05-05 00:25 | 35.78722 | -120.19857 | 35034 ft | 454 kts | 156° |
| 2026-05-05 00:26 | 35.73301 | -120.15848 | 35030 ft | 455 kts | 156° |
| 2026-05-05 00:26 | 35.67906 | -120.11788 | 35018 ft | 454 kts | 156° |
| 2026-05-05 00:27 | 35.62561 | -120.07745 | 35014 ft | 446 kts | 156° |
| 2026-05-05 00:27 | 35.57286 | -120.03763 | 35013 ft | 445 kts | 157° |
| 2026-05-05 00:28 | 35.52028 | -119.99794 | 35025 ft | 444 kts | 157° |
| 2026-05-05 00:28 | 35.46763 | -119.95840 | 35031 ft | 444 kts | 157° |
| 2026-05-05 00:29 | 35.41485 | -119.91873 | 35018 ft | 445 kts | 157° |
| 2026-05-05 00:29 | 35.36216 | -119.87917 | 35022 ft | 445 kts | 157° |
| 2026-05-05 00:30 | 35.30933 | -119.83959 | 35021 ft | 445 kts | 157° |
| 2026-05-05 00:30 | 35.25746 | -119.79746 | 35008 ft | 451 kts | 152° |
| 2026-05-05 00:30 | 35.23249 | -119.77397 | 34755 ft | 457 kts | 151° |
| 2026-05-05 00:31 | 35.20744 | -119.74979 | 34187 ft | 457 kts | 151° |
| 2026-05-05 00:31 | 35.18256 | -119.72574 | 33476 ft | 456 kts | 152° |
| 2026-05-05 00:31 | 35.15752 | -119.70182 | 32740 ft | 456 kts | 152° |
| 2026-05-05 00:31 | 35.13244 | -119.67816 | 32014 ft | 456 kts | 152° |
| 2026-05-05 00:32 | 35.10723 | -119.65457 | 31276 ft | 456 kts | 153° |
| 2026-05-05 00:32 | 35.08203 | -119.63111 | 30654 ft | 454 kts | 153° |
| 2026-05-05 00:32 | 35.05701 | -119.60782 | 30124 ft | 450 kts | 153° |
| 2026-05-05 00:32 | 35.03227 | -119.58481 | 29484 ft | 445 kts | 153° |
| 2026-05-05 00:33 | 35.00774 | -119.56202 | 28922 ft | 440 kts | 153° |
| 2026-05-05 00:33 | 34.98354 | -119.53956 | 28378 ft | 434 kts | 152° |
| 2026-05-05 00:33 | 34.95966 | -119.51744 | 27838 ft | 429 kts | 152° |
| 2026-05-05 00:33 | 34.93596 | -119.49555 | 27311 ft | 425 kts | 152° |
| 2026-05-05 00:34 | 34.91263 | -119.47392 | 26781 ft | 421 kts | 151° |
| 2026-05-05 00:34 | 34.88921 | -119.45251 | 26170 ft | 420 kts | 150° |
| 2026-05-05 00:34 | 34.86598 | -119.43113 | 25636 ft | 416 kts | 152° |
| 2026-05-05 00:34 | 34.84263 | -119.41063 | 25102 ft | 413 kts | 152° |
| 2026-05-05 00:35 | 34.81937 | -119.39029 | 24599 ft | 411 kts | 152° |
| 2026-05-05 00:35 | 34.79631 | -119.36986 | 24085 ft | 409 kts | 151° |
| 2026-05-05 00:35 | 34.77352 | -119.34951 | 23840 ft | 400 kts | 151° |
| 2026-05-05 00:35 | 34.75133 | -119.32965 | 23612 ft | 392 kts | 151° |
| 2026-05-05 00:36 | 34.72946 | -119.31033 | 23010 ft | 392 kts | 151° |
| 2026-05-05 00:36 | 34.70737 | -119.29109 | 22561 ft | 388 kts | 151° |
| 2026-05-05 00:36 | 34.68551 | -119.27206 | 22088 ft | 385 kts | 150° |
| 2026-05-05 00:36 | 34.66387 | -119.25319 | 21664 ft | 381 kts | 150° |
| 2026-05-05 00:37 | 34.64243 | -119.23450 | 21226 ft | 377 kts | 150° |
| 2026-05-05 00:37 | 34.62113 | -119.21612 | 20773 ft | 374 kts | 150° |
| 2026-05-05 00:37 | 34.59995 | -119.19788 | 20357 ft | 372 kts | 150° |
| 2026-05-05 00:37 | 34.57891 | -119.17979 | 19941 ft | 369 kts | 150° |
| 2026-05-05 00:38 | 34.55805 | -119.16180 | 19519 ft | 367 kts | 149° |
| 2026-05-05 00:38 | 34.53741 | -119.14362 | 19108 ft | 365 kts | 148° |
| 2026-05-05 00:38 | 34.51702 | -119.12548 | 18685 ft | 363 kts | 148° |
| 2026-05-05 00:38 | 34.49668 | -119.10738 | 18256 ft | 362 kts | 148° |
| 2026-05-05 00:39 | 34.47640 | -119.08940 | 17780 ft | 360 kts | 148° |
| 2026-05-05 00:39 | 34.45622 | -119.07155 | 17342 ft | 358 kts | 148° |
| 2026-05-05 00:39 | 34.43609 | -119.05380 | 16875 ft | 356 kts | 148° |
| 2026-05-05 00:39 | 34.41603 | -119.03645 | 16474 ft | 353 kts | 148° |
| 2026-05-05 00:40 | 34.39607 | -119.01917 | 16042 ft | 352 kts | 148° |
| 2026-05-05 00:40 | 34.37621 | -119.00197 | 15614 ft | 350 kts | 148° |
| 2026-05-05 00:40 | 34.35650 | -118.98493 | 15199 ft | 347 kts | 148° |
| 2026-05-05 00:40 | 34.33690 | -118.96788 | 14807 ft | 346 kts | 147° |
| 2026-05-05 00:41 | 34.31768 | -118.95053 | 14395 ft | 344 kts | 146° |
| 2026-05-05 00:41 | 34.29861 | -118.93310 | 13975 ft | 343 kts | 146° |
| 2026-05-05 00:41 | 34.27961 | -118.91578 | 13534 ft | 341 kts | 146° |
| 2026-05-05 00:41 | 34.26068 | -118.89857 | 13087 ft | 339 kts | 147° |
| 2026-05-05 00:42 | 34.24190 | -118.88143 | 12672 ft | 337 kts | 147° |
| 2026-05-05 00:42 | 34.22336 | -118.86437 | 12400 ft | 330 kts | 147° |
| 2026-05-05 00:42 | 34.20539 | -118.84782 | 12265 ft | 321 kts | 147° |
| 2026-05-05 00:42 | 34.18787 | -118.83173 | 12125 ft | 312 kts | 146° |
| 2026-05-05 00:43 | 34.17085 | -118.81609 | 11979 ft | 303 kts | 146° |
| 2026-05-05 00:43 | 34.15456 | -118.80028 | 11701 ft | 301 kts | 142° |
| 2026-05-05 00:43 | 34.13903 | -118.78338 | 11420 ft | 299 kts | 142° |
| 2026-05-05 00:43 | 34.12386 | -118.76651 | 11138 ft | 297 kts | 141° |
| 2026-05-05 00:44 | 34.10873 | -118.74975 | 10847 ft | 295 kts | 141° |
| 2026-05-05 00:44 | 34.09352 | -118.73310 | 10557 ft | 294 kts | 141° |
| 2026-05-05 00:44 | 34.07839 | -118.71662 | 10262 ft | 292 kts | 141° |
| 2026-05-05 00:44 | 34.06336 | -118.70028 | 9993 ft | 290 kts | 141° |
| 2026-05-05 00:45 | 34.04865 | -118.68430 | 9900 ft | 278 kts | 141° |
| 2026-05-05 00:45 | 34.03481 | -118.66772 | 9430 ft | 284 kts | 128° |
| 2026-05-05 00:45 | 34.02752 | -118.64548 | 9103 ft | 288 kts | 102° |
| 2026-05-05 00:45 | 34.02486 | -118.62162 | 8802 ft | 287 kts | 97° |
| 2026-05-05 00:46 | 34.02293 | -118.59768 | 8505 ft | 287 kts | 97° |
| 2026-05-05 00:46 | 34.02093 | -118.57381 | 8205 ft | 286 kts | 97° |
| 2026-05-05 00:46 | 34.01883 | -118.55003 | 7929 ft | 284 kts | 97° |
| 2026-05-05 00:46 | 34.01670 | -118.52650 | 7699 ft | 281 kts | 97° |
| 2026-05-05 00:47 | 34.01453 | -118.50320 | 7476 ft | 279 kts | 97° |
| 2026-05-05 00:47 | 34.01234 | -118.48002 | 7240 ft | 278 kts | 97° |
| 2026-05-05 00:47 | 34.01046 | -118.45686 | 7001 ft | 277 kts | 90° |
| 2026-05-05 00:47 | 34.01330 | -118.43401 | 6782 ft | 275 kts | 75° |
| 2026-05-05 00:48 | 34.01777 | -118.41171 | 6554 ft | 272 kts | 77° |
| 2026-05-05 00:48 | 34.02179 | -118.38933 | 6211 ft | 273 kts | 78° |
| 2026-05-05 00:48 | 34.02568 | -118.36703 | 5906 ft | 270 kts | 79° |
| 2026-05-05 00:48 | 34.02908 | -118.34503 | 5547 ft | 264 kts | 84° |
| 2026-05-05 00:49 | 34.03120 | -118.32354 | 5289 ft | 253 kts | 85° |
| 2026-05-05 00:49 | 34.03316 | -118.30279 | 5002 ft | 244 kts | 84° |
| 2026-05-05 00:49 | 34.03511 | -118.28275 | 4729 ft | 239 kts | 84° |
| 2026-05-05 00:49 | 34.03704 | -118.26299 | 4466 ft | 236 kts | 84° |
| 2026-05-05 00:50 | 34.03894 | -118.24357 | 4212 ft | 231 kts | 84° |
| 2026-05-05 00:50 | 34.04068 | -118.22447 | 4040 ft | 226 kts | 86° |
| 2026-05-05 00:50 | 34.04237 | -118.20497 | 4037 ft | 238 kts | 84° |
| 2026-05-05 00:50 | 34.04438 | -118.18522 | 4007 ft | 241 kts | 83° |
| 2026-05-05 00:51 | 34.04663 | -118.16539 | 3985 ft | 237 kts | 82° |
| 2026-05-05 00:51 | 34.04864 | -118.14542 | 3707 ft | 243 kts | 84° |
| 2026-05-05 00:51 | 34.05088 | -118.12487 | 3376 ft | 246 kts | 83° |
| 2026-05-05 00:51 | 34.05283 | -118.10533 | 3065 ft | 239 kts | 84° |
| 2026-05-05 00:52 | 34.05460 | -118.08589 | 2986 ft | 229 kts | 86° |
| 2026-05-05 00:52 | 34.05590 | -118.06690 | 3013 ft | 225 kts | 87° |
| 2026-05-05 00:52 | 34.05701 | -118.04809 | 3001 ft | 226 kts | 85° |
| 2026-05-05 00:52 | 34.05877 | -118.03051 | 2976 ft | 227 kts | 84° |
| 2026-05-05 00:53 | 34.05886 | -118.01160 | 2982 ft | 226 kts | 105° |
| 2026-05-05 00:53 | 34.05246 | -117.99471 | 2988 ft | 220 kts | 134° |
| 2026-05-05 00:53 | 34.04090 | -117.98354 | 2984 ft | 210 kts | 162° |
| 2026-05-05 00:53 | 34.02707 | -117.98034 | 2985 ft | 199 kts | 190° |
| 2026-05-05 00:54 | 34.01429 | -117.98548 | 2978 ft | 193 kts | 217° |
| 2026-05-05 00:54 | 34.00476 | -117.99702 | 2990 ft | 197 kts | 231° |
| 2026-05-05 00:54 | 33.99598 | -118.00945 | 3011 ft | 199 kts | 232° |
| 2026-05-05 00:54 | 33.98978 | -118.02393 | 2986 ft | 193 kts | 262° |
| 2026-05-05 00:55 | 33.98950 | -118.04008 | 2982 ft | 189 kts | 264° |
| 2026-05-05 00:55 | 33.98809 | -118.05548 | 2998 ft | 187 kts | 262° |
| 2026-05-05 00:55 | 33.98644 | -118.07110 | 2997 ft | 194 kts | 262° |
| 2026-05-05 00:55 | 33.98528 | -118.08200 | 2990 ft | 193 kts | 262° |
| 2026-05-05 00:56 | 33.98304 | -118.10315 | 2981 ft | 195 kts | 262° |
| 2026-05-05 00:56 | 33.98134 | -118.11940 | 2996 ft | 195 kts | 262° |
| 2026-05-05 00:56 | 33.97964 | -118.13562 | 2985 ft | 196 kts | 262° |
| 2026-05-05 00:56 | 33.97795 | -118.15182 | 2984 ft | 195 kts | 261° |
| 2026-05-05 00:57 | 33.97681 | -118.16273 | 2989 ft | 193 kts | 261° |
| 2026-05-05 00:57 | 33.97513 | -118.17876 | 2989 ft | 193 kts | 262° |
| 2026-05-05 00:57 | 33.97348 | -118.19470 | 2997 ft | 191 kts | 262° |
| 2026-05-05 00:57 | 33.97182 | -118.21061 | 3004 ft | 191 kts | 262° |
| 2026-05-05 00:58 | 33.97018 | -118.22645 | 2961 ft | 191 kts | 261° |
| 2026-05-05 00:58 | 33.96852 | -118.24239 | 2765 ft | 192 kts | 262° |
| 2026-05-05 00:58 | 33.96691 | -118.25799 | 2518 ft | 183 kts | 262° |
| 2026-05-05 00:58 | 33.96539 | -118.27267 | 2271 ft | 171 kts | 262° |
| 2026-05-05 00:59 | 33.96393 | -118.28677 | 2055 ft | 167 kts | 262° |
| 2026-05-05 00:59 | 33.96249 | -118.30074 | 1831 ft | 171 kts | 263° |
| 2026-05-05 00:59 | 33.96107 | -118.31456 | 1594 ft | 161 kts | 263° |
| 2026-05-05 00:59 | 33.95975 | -118.32733 | 1392 ft | 150 kts | 262° |
| 2026-05-05 01:00 | 33.95852 | -118.33954 | 1208 ft | 141 kts | 261° |
| 2026-05-05 01:00 | 33.95735 | -118.35118 | 985 ft | 139 kts | 262° |
| 2026-05-05 01:00 | 33.95617 | -118.36279 | 827 ft | 139 kts | 263° |
| 2026-05-05 01:00 | 33.95503 | -118.37416 | 631 ft | 133 kts | 261° |
| 2026-05-05 01:01 | 33.95391 | -118.38517 | 436 ft | 134 kts | 260° |
| 2026-05-05 01:01 | 33.95273 | -118.39654 | 242 ft | 138 kts | 261° |
| 2026-05-05 01:01 | 33.95154 | -118.40769 | 125 ft | 123 kts | 262° |
| 2026-05-05 01:01 | 33.95068 | -118.41539 | 125 ft | 63 kts | 262° |
| 2026-05-05 01:02 | 33.95015 | -118.41800 | 122 ft | 2 kts | 235° |
| 2026-05-05 01:02 | 33.94972 | -118.41868 | 123 ft | 16 kts | 232° |
| 2026-05-05 01:02 | 33.94925 | -118.41946 | 124 ft | 0 kts | 234° |
| 2026-05-05 01:03 | 33.94899 | -118.41990 | 123 ft | 14 kts | 234° |
| 2026-05-05 01:03 | 33.94827 | -118.42107 | 122 ft | 18 kts | 233° |
| 2026-05-05 01:03 | 33.94743 | -118.42233 | 122 ft | 17 kts | 214° |
| 2026-05-05 01:03 | 33.94690 | -118.42165 | 124 ft | 15 kts | 86° |
| 2026-05-05 01:04 | 33.94708 | -118.42006 | 125 ft | 23 kts | 82° |
| 2026-05-05 01:04 | 33.94745 | -118.41630 | 125 ft | 22 kts | 83° |
| 2026-05-05 01:04 | 33.94764 | -118.41450 | 124 ft | 21 kts | 81° |
| 2026-05-05 01:05 | 33.94796 | -118.41278 | 125 ft | 21 kts | 83° |
| 2026-05-05 01:05 | 33.94813 | -118.41109 | 125 ft | 20 kts | 83° |
| 2026-05-05 01:05 | 33.94829 | -118.40948 | 124 ft | 19 kts | 83° |
| 2026-05-05 01:05 | 33.94845 | -118.40789 | 125 ft | 19 kts | 83° |
| 2026-05-05 01:06 | 33.94861 | -118.40635 | 125 ft | 18 kts | 83° |
| 2026-05-05 01:06 | 33.94878 | -118.40470 | 122 ft | 21 kts | 83° |
| 2026-05-05 01:06 | 33.94887 | -118.40313 | 120 ft | 12 kts | 127° |
| 2026-05-05 01:06 | 33.94827 | -118.40245 | 125 ft | 12 kts | 100° |
| 2026-05-05 01:07 | 33.94839 | -118.40145 | 125 ft | 12 kts | 83° |
| 2026-05-05 01:07 | 33.94832 | -118.40054 | 121 ft | 10 kts | 158° |
| 2026-05-05 01:07 | 33.94800 | -118.40079 | 122 ft | 0 kts | 226° |